sensor_id;sensor_type;location;lat;lon;timestamp;pressure;altitude;pressure_sealevel;temperature;humidity
63535;BME280;55128;50.230;18.944;2023-02-15T00:00:34;100118.22;;;3.77;73.91
63535;BME280;55128;50.230;18.944;2023-02-15T00:05:35;100118.22;;;3.75;74.02
63535;BME280;55128;50.230;18.944;2023-02-15T00:10:35;100112.22;;;3.95;73.57
63535;BME280;55128;50.230;18.944;2023-02-15T00:15:35;100114.88;;;4.01;73.42
63535;BME280;55128;50.230;18.944;2023-02-15T00:20:36;100103.53;;;4.14;71.83
63535;BME280;55128;50.230;18.944;2023-02-15T00:25:36;100093.72;;;3.76;73.40
63535;BME280;55128;50.230;18.944;2023-02-15T00:30:36;100086.72;;;3.72;73.92
63535;BME280;55128;50.230;18.944;2023-02-15T00:35:37;100090.19;;;3.68;74.46
63535;BME280;55128;50.230;18.944;2023-02-15T00:40:37;100079.69;;;3.73;74.28
63535;BME280;55128;50.230;18.944;2023-02-15T00:45:37;100068.31;;;3.75;74.08
63535;BME280;55128;50.230;18.944;2023-02-15T00:50:38;100065.72;;;3.78;74.05
63535;BME280;55128;50.230;18.944;2023-02-15T00:55:38;100062.03;;;3.47;74.79
63535;BME280;55128;50.230;18.944;2023-02-15T01:00:42;100063.06;;;3.70;74.59
63535;BME280;55128;50.230;18.944;2023-02-15T01:05:43;100061.38;;;3.85;74.02
63535;BME280;55128;50.230;18.944;2023-02-15T01:10:43;100058.66;;;3.71;73.62
63535;BME280;55128;50.230;18.944;2023-02-15T01:15:46;100068.34;;;3.78;74.50
63535;BME280;55128;50.230;18.944;2023-02-15T01:20:52;100064.03;;;3.91;73.77
63535;BME280;55128;50.230;18.944;2023-02-15T01:25:53;100049.06;;;3.76;74.00
63535;BME280;55128;50.230;18.944;2023-02-15T01:30:53;100044.72;;;3.78;74.30
63535;BME280;55128;50.230;18.944;2023-02-15T01:35:57;100042.97;;;3.86;74.11
63535;BME280;55128;50.230;18.944;2023-02-15T01:40:57;100030.66;;;3.67;74.42
63535;BME280;55128;50.230;18.944;2023-02-15T01:46:20;100015.78;;;3.75;74.11
63535;BME280;55128;50.230;18.944;2023-02-15T01:51:24;100017.53;;;3.68;74.10
63535;BME280;55128;50.230;18.944;2023-02-15T01:56:33;100005.34;;;3.81;72.72
63535;BME280;55128;50.230;18.944;2023-02-15T02:01:33;100015.75;;;3.61;72.75
63535;BME280;55128;50.230;18.944;2023-02-15T02:06:35;100005.31;;;3.74;72.44
63535;BME280;55128;50.230;18.944;2023-02-15T02:11:36;100002.63;;;3.66;71.89
63535;BME280;55128;50.230;18.944;2023-02-15T02:22:30;99981.66;;;3.75;72.30
63535;BME280;55128;50.230;18.944;2023-02-15T02:27:50;99975.53;;;3.76;72.18
63535;BME280;55128;50.230;18.944;2023-02-15T02:38:51;99965.91;;;3.78;70.92
63535;BME280;55128;50.230;18.944;2023-02-15T02:44:09;99966.75;;;3.66;71.51
63535;BME280;55128;50.230;18.944;2023-02-15T02:49:11;99952.69;;;3.54;72.06
63535;BME280;55128;50.230;18.944;2023-02-15T02:54:12;99947.41;;;3.46;72.36
63535;BME280;55128;50.230;18.944;2023-02-15T02:59:23;99952.66;;;3.50;72.57
63535;BME280;55128;50.230;18.944;2023-02-15T03:04:28;99943.13;;;3.68;71.37
63535;BME280;55128;50.230;18.944;2023-02-15T03:09:38;99943.06;;;3.56;71.67
63535;BME280;55128;50.230;18.944;2023-02-15T03:14:44;99934.28;;;3.50;72.04
63535;BME280;55128;50.230;18.944;2023-02-15T03:19:46;99930.78;;;3.45;71.91
63535;BME280;55128;50.230;18.944;2023-02-15T03:25:08;99936.00;;;3.39;72.17
63535;BME280;55128;50.230;18.944;2023-02-15T03:30:11;99937.75;;;3.37;72.17
63535;BME280;55128;50.230;18.944;2023-02-15T03:35:13;99932.47;;;3.31;72.52
63535;BME280;55128;50.230;18.944;2023-02-15T03:40:23;99938.59;;;3.33;72.98
63535;BME280;55128;50.230;18.944;2023-02-15T03:45:47;99942.97;;;3.29;72.66
63535;BME280;55128;50.230;18.944;2023-02-15T03:50:58;99946.41;;;3.22;73.11
63535;BME280;55128;50.230;18.944;2023-02-15T03:56:30;99946.41;;;3.19;73.24
63535;BME280;55128;50.230;18.944;2023-02-15T04:01:48;99950.75;;;3.14;73.28
63535;BME280;55128;50.230;18.944;2023-02-15T04:06:59;99950.81;;;3.23;73.23
63535;BME280;55128;50.230;18.944;2023-02-15T04:12:00;99957.75;;;3.14;73.52
63535;BME280;55128;50.230;18.944;2023-02-15T04:17:00;99950.00;;;3.38;72.86
63535;BME280;55128;50.230;18.944;2023-02-15T04:22:00;99955.97;;;3.09;73.55
63535;BME280;55128;50.230;18.944;2023-02-15T04:27:19;99944.66;;;3.20;73.64
63535;BME280;55128;50.230;18.944;2023-02-15T04:32:20;99947.25;;;3.17;73.66
63535;BME280;55128;50.230;18.944;2023-02-15T04:37:20;99944.63;;;3.10;73.86
63535;BME280;55128;50.230;18.944;2023-02-15T04:42:20;99949.09;;;3.38;73.18
63535;BME280;55128;50.230;18.944;2023-02-15T04:47:21;99949.09;;;3.28;73.31
63535;BME280;55128;50.230;18.944;2023-02-15T04:52:21;99948.22;;;3.29;73.45
63535;BME280;55128;50.230;18.944;2023-02-15T04:57:22;99946.41;;;3.22;73.47
63535;BME280;55128;50.230;18.944;2023-02-15T05:02:22;99947.16;;;3.00;74.49
63535;BME280;55128;50.230;18.944;2023-02-15T05:07:22;99944.63;;;3.10;74.31
63535;BME280;55128;50.230;18.944;2023-02-15T05:12:23;99946.28;;;2.98;74.28
63535;BME280;55128;50.230;18.944;2023-02-15T05:17:23;99949.81;;;3.01;74.26
63535;BME280;55128;50.230;18.944;2023-02-15T05:22:24;99952.53;;;3.20;74.35
63535;BME280;55128;50.230;18.944;2023-02-15T05:27:24;99947.22;;;3.04;74.40
63535;BME280;55128;50.230;18.944;2023-02-15T05:32:43;99955.00;;;2.92;75.25
63535;BME280;55128;50.230;18.944;2023-02-15T05:37:43;99938.38;;;2.91;74.87
63535;BME280;55128;50.230;18.944;2023-02-15T05:42:43;99937.56;;;3.03;74.71
63535;BME280;55128;50.230;18.944;2023-02-15T05:47:44;99939.19;;;2.83;75.46
63535;BME280;55128;50.230;18.944;2023-02-15T05:52:45;99945.38;;;2.94;75.13
63535;BME280;55128;50.230;18.944;2023-02-15T05:57:45;99950.63;;;2.96;75.50
63535;BME280;55128;50.230;18.944;2023-02-15T06:02:46;99954.16;;;2.99;75.53
63535;BME280;55128;50.230;18.944;2023-02-15T06:07:46;99944.41;;;2.81;76.07
63535;BME280;55128;50.230;18.944;2023-02-15T06:12:46;99934.06;;;3.01;75.48
63535;BME280;55128;50.230;18.944;2023-02-15T06:17:47;99943.63;;;2.91;75.58
63535;BME280;55128;50.230;18.944;2023-02-15T06:22:47;99945.41;;;2.96;75.58
63535;BME280;55128;50.230;18.944;2023-02-15T06:27:47;99954.13;;;2.91;75.71
63535;BME280;55128;50.230;18.944;2023-02-15T06:32:49;99955.78;;;2.80;75.80
63535;BME280;55128;50.230;18.944;2023-02-15T06:37:49;99965.50;;;2.94;75.68
63535;BME280;55128;50.230;18.944;2023-02-15T06:42:50;99968.00;;;2.77;76.49
63535;BME280;55128;50.230;18.944;2023-02-15T06:47:50;99965.53;;;3.01;75.90
63535;BME280;55128;50.230;18.944;2023-02-15T06:52:58;99955.91;;;2.97;75.92
63535;BME280;55128;50.230;18.944;2023-02-15T06:57:58;99952.47;;;3.10;75.38
63535;BME280;55128;50.230;18.944;2023-02-15T07:02:59;99948.94;;;3.01;75.87
63535;BME280;55128;50.230;18.944;2023-02-15T07:08:00;99944.56;;;3.06;75.39
63535;BME280;55128;50.230;18.944;2023-02-15T07:13:00;99943.00;;;3.40;75.12
63535;BME280;55128;50.230;18.944;2023-02-15T07:18:00;99950.00;;;3.41;73.82
63535;BME280;55128;50.230;18.944;2023-02-15T07:23:01;99949.88;;;3.14;75.31
63535;BME280;55128;50.230;18.944;2023-02-15T07:28:03;99946.53;;;3.47;74.08
63535;BME280;55128;50.230;18.944;2023-02-15T07:33:03;99947.38;;;3.43;74.19
63535;BME280;55128;50.230;18.944;2023-02-15T07:38:24;99940.53;;;3.76;73.36
63535;BME280;55128;50.230;18.944;2023-02-15T07:43:25;99939.66;;;3.81;72.62
63535;BME280;55128;50.230;18.944;2023-02-15T07:48:25;99941.38;;;3.73;72.92
63535;BME280;55128;50.230;18.944;2023-02-15T07:53:25;99927.47;;;4.02;72.42
63535;BME280;55128;50.230;18.944;2023-02-15T07:58:26;99931.84;;;4.15;71.60
63535;BME280;55128;50.230;18.944;2023-02-15T08:03:47;99927.47;;;4.48;71.53
63535;BME280;55128;50.230;18.944;2023-02-15T08:08:47;99921.91;;;5.71;68.63
63535;BME280;55128;50.230;18.944;2023-02-15T08:13:50;99923.06;;;6.58;65.83
63535;BME280;55128;50.230;18.944;2023-02-15T08:18:55;99921.06;;;8.28;60.78
63535;BME280;55128;50.230;18.944;2023-02-15T08:23:56;99919.16;;;7.01;62.16
63535;BME280;55128;50.230;18.944;2023-02-15T08:28:58;99917.81;;;7.44;60.36
63535;BME280;55128;50.230;18.944;2023-02-15T08:33:58;99915.06;;;7.53;61.37
63535;BME280;55128;50.230;18.944;2023-02-15T08:39:02;99908.69;;;9.29;58.24
63535;BME280;55128;50.230;18.944;2023-02-15T08:44:07;99895.69;;;11.07;52.64
63535;BME280;55128;50.230;18.944;2023-02-15T08:49:09;99905.56;;;10.32;51.76
63535;BME280;55128;50.230;18.944;2023-02-15T08:54:14;99902.50;;;11.16;49.68
63535;BME280;55128;50.230;18.944;2023-02-15T08:59:17;99896.38;;;13.84;43.46
63535;BME280;55128;50.230;18.944;2023-02-15T09:04:18;99896.69;;;15.28;39.76
63535;BME280;55128;50.230;18.944;2023-02-15T09:09:21;99891.84;;;17.37;37.52
63535;BME280;55128;50.230;18.944;2023-02-15T09:14:25;99896.72;;;17.96;33.74
63535;BME280;55128;50.230;18.944;2023-02-15T09:19:27;99891.13;;;19.66;31.26
63535;BME280;55128;50.230;18.944;2023-02-15T09:24:33;99894.06;;;19.77;29.86
63535;BME280;55128;50.230;18.944;2023-02-15T09:29:40;99884.16;;;20.74;29.36
63535;BME280;55128;50.230;18.944;2023-02-15T09:34:46;99867.47;;;20.94;28.63
63535;BME280;55128;50.230;18.944;2023-02-15T09:40:07;99864.59;;;21.62;26.33
63535;BME280;55128;50.230;18.944;2023-02-15T09:50:26;99855.59;;;23.41;24.72
63535;BME280;55128;50.230;18.944;2023-02-15T10:28:23;99828.59;;;23.62;23.60
63535;BME280;55128;50.230;18.944;2023-02-15T10:33:39;99827.16;;;22.05;24.30
63535;BME280;55128;50.230;18.944;2023-02-15T10:38:43;99827.28;;;20.90;25.97
63535;BME280;55128;50.230;18.944;2023-02-15T10:44:03;99814.44;;;17.77;30.93
63535;BME280;55128;50.230;18.944;2023-02-15T11:05:19;99779.91;;;11.85;42.97
63535;BME280;55128;50.230;18.944;2023-02-15T11:10:30;99778.59;;;11.98;42.70
63535;BME280;55128;50.230;18.944;2023-02-15T11:15:37;99774.97;;;11.73;43.52
63535;BME280;55128;50.230;18.944;2023-02-15T11:20:49;99759.78;;;11.48;44.28
63535;BME280;55128;50.230;18.944;2023-02-15T11:26:10;99752.78;;;11.74;43.75
63535;BME280;55128;50.230;18.944;2023-02-15T11:31:16;99758.47;;;11.03;46.23
63535;BME280;55128;50.230;18.944;2023-02-15T11:36:21;99756.59;;;11.37;43.87
63535;BME280;55128;50.230;18.944;2023-02-15T11:41:29;99750.00;;;11.20;46.42
63535;BME280;55128;50.230;18.944;2023-02-15T11:46:32;99739.78;;;11.36;45.98
63535;BME280;55128;50.230;18.944;2023-02-15T11:51:32;99728.81;;;11.47;45.93
63535;BME280;55128;50.230;18.944;2023-02-15T11:56:32;99725.91;;;10.97;45.84
63535;BME280;55128;50.230;18.944;2023-02-15T12:01:36;99727.50;;;11.02;46.26
63535;BME280;55128;50.230;18.944;2023-02-15T12:06:46;99721.91;;;11.41;46.11
63535;BME280;55128;50.230;18.944;2023-02-15T12:11:48;99699.50;;;11.20;45.02
63535;BME280;55128;50.230;18.944;2023-02-15T12:16:51;99709.22;;;11.21;46.54
63535;BME280;55128;50.230;18.944;2023-02-15T12:21:53;99696.28;;;11.09;44.99
63535;BME280;55128;50.230;18.944;2023-02-15T12:27:32;99692.69;;;11.40;44.79
63535;BME280;55128;50.230;18.944;2023-02-15T12:32:46;99683.69;;;11.44;44.41
63535;BME280;55128;50.230;18.944;2023-02-15T12:38:01;99676.63;;;11.43;44.07
63535;BME280;55128;50.230;18.944;2023-02-15T12:43:03;99670.69;;;11.61;44.64
63535;BME280;55128;50.230;18.944;2023-02-15T12:53:31;99659.44;;;11.26;42.84
63535;BME280;55128;50.230;18.944;2023-02-15T12:58:34;99652.50;;;11.49;43.25
63535;BME280;55128;50.230;18.944;2023-02-15T13:03:38;99654.28;;;11.48;42.99
63535;BME280;55128;50.230;18.944;2023-02-15T13:08:46;99646.47;;;11.44;42.69
63535;BME280;55128;50.230;18.944;2023-02-15T13:14:00;99641.44;;;11.35;42.71
63535;BME280;55128;50.230;18.944;2023-02-15T13:19:10;99643.59;;;11.50;43.12
63535;BME280;55128;50.230;18.944;2023-02-15T13:29:28;99623.00;;;11.30;43.05
63535;BME280;55128;50.230;18.944;2023-02-15T13:34:32;99621.41;;;11.24;43.76
63535;BME280;55128;50.230;18.944;2023-02-15T13:39:58;99617.47;;;10.81;44.39
63535;BME280;55128;50.230;18.944;2023-02-15T13:50:19;99607.53;;;11.15;43.75
63535;BME280;55128;50.230;18.944;2023-02-15T13:55:55;99602.34;;;11.12;44.08
63535;BME280;55128;50.230;18.944;2023-02-15T14:11:41;99595.72;;;10.97;44.77
63535;BME280;55128;50.230;18.944;2023-02-15T14:22:18;99593.06;;;10.68;45.57
63535;BME280;55128;50.230;18.944;2023-02-15T14:33:23;99587.13;;;10.29;46.91
63535;BME280;55128;50.230;18.944;2023-02-15T14:49:12;99581.16;;;10.21;47.13
63535;BME280;55128;50.230;18.944;2023-02-15T14:59:19;99582.00;;;9.91;47.83
63535;BME280;55128;50.230;18.944;2023-02-15T15:10:04;99576.44;;;9.68;48.87
63535;BME280;55128;50.230;18.944;2023-02-15T15:15:45;99566.44;;;9.45;49.37
63535;BME280;55128;50.230;18.944;2023-02-15T15:20:50;99580.34;;;9.20;50.59
63535;BME280;55128;50.230;18.944;2023-02-15T15:26:21;99568.94;;;9.17;51.46
63535;BME280;55128;50.230;18.944;2023-02-15T15:37:02;99571.47;;;8.84;52.58
63535;BME280;55128;50.230;18.944;2023-02-15T15:42:25;99566.69;;;8.62;52.90
63535;BME280;55128;50.230;18.944;2023-02-15T15:53:29;99550.94;;;8.14;54.30
63535;BME280;55128;50.230;18.944;2023-02-15T15:58:33;99550.00;;;7.73;55.62
63535;BME280;55128;50.230;18.944;2023-02-15T16:03:34;99548.91;;;7.39;56.13
63535;BME280;55128;50.230;18.944;2023-02-15T16:08:37;99544.09;;;7.12;57.95
63535;BME280;55128;50.230;18.944;2023-02-15T16:13:40;99551.50;;;6.88;58.62
63535;BME280;55128;50.230;18.944;2023-02-15T16:18:41;99554.53;;;6.64;59.14
63535;BME280;55128;50.230;18.944;2023-02-15T16:28:58;99555.25;;;6.10;59.75
63535;BME280;55128;50.230;18.944;2023-02-15T16:33:58;99557.19;;;5.92;61.25
63535;BME280;55128;50.230;18.944;2023-02-15T16:44:04;99559.44;;;5.49;62.37
63535;BME280;55128;50.230;18.944;2023-02-15T16:49:17;99553.59;;;5.17;63.41
63535;BME280;55128;50.230;18.944;2023-02-15T16:54:21;99555.47;;;5.03;63.21
63535;BME280;55128;50.230;18.944;2023-02-15T16:59:28;99560.00;;;4.87;63.55
63535;BME280;55128;50.230;18.944;2023-02-15T17:04:31;99561.03;;;4.67;62.91
63535;BME280;55128;50.230;18.944;2023-02-15T17:09:33;99556.78;;;4.43;63.36
63535;BME280;55128;50.230;18.944;2023-02-15T17:14:37;99560.41;;;4.21;64.15
63535;BME280;55128;50.230;18.944;2023-02-15T17:19:52;99557.00;;;4.00;65.52
63535;BME280;55128;50.230;18.944;2023-02-15T17:25:01;99555.31;;;3.82;64.82
63535;BME280;55128;50.230;18.944;2023-02-15T17:30:14;99558.88;;;3.60;66.44
63535;BME280;55128;50.230;18.944;2023-02-15T17:35:21;99556.28;;;3.52;66.48
63535;BME280;55128;50.230;18.944;2023-02-15T17:40:27;99559.84;;;3.34;67.80
63535;BME280;55128;50.230;18.944;2023-02-15T17:45:34;99553.69;;;3.23;68.56
63535;BME280;55128;50.230;18.944;2023-02-15T17:50:35;99550.22;;;3.07;69.64
63535;BME280;55128;50.230;18.944;2023-02-15T17:55:35;99548.47;;;2.98;70.34
63535;BME280;55128;50.230;18.944;2023-02-15T18:00:44;99534.50;;;2.87;70.36
63535;BME280;55128;50.230;18.944;2023-02-15T18:06:04;99539.75;;;3.02;71.05
63535;BME280;55128;50.230;18.944;2023-02-15T18:11:23;99541.47;;;3.09;70.71
63535;BME280;55128;50.230;18.944;2023-02-15T18:16:41;99536.22;;;3.23;71.57
63535;BME280;55128;50.230;18.944;2023-02-15T18:21:42;99541.47;;;3.34;71.15
63535;BME280;55128;50.230;18.944;2023-02-15T18:26:43;99541.41;;;3.43;70.51
63535;BME280;55128;50.230;18.944;2023-02-15T18:31:47;99537.03;;;3.48;70.65
63535;BME280;55128;50.230;18.944;2023-02-15T18:36:51;99527.47;;;3.40;71.01
63535;BME280;55128;50.230;18.944;2023-02-15T18:41:52;99521.28;;;3.48;71.15
63535;BME280;55128;50.230;18.944;2023-02-15T18:46:52;99530.06;;;3.38;71.54
63535;BME280;55128;50.230;18.944;2023-02-15T18:51:53;99531.81;;;3.33;71.69
63535;BME280;55128;50.230;18.944;2023-02-15T18:56:56;99535.31;;;3.35;71.79
63535;BME280;55128;50.230;18.944;2023-02-15T19:01:57;99537.97;;;3.29;70.90
63535;BME280;55128;50.230;18.944;2023-02-15T19:06:59;99534.47;;;3.15;71.37
63535;BME280;55128;50.230;18.944;2023-02-15T19:11:59;99531.88;;;3.08;72.05
63535;BME280;55128;50.230;18.944;2023-02-15T19:17:00;99517.00;;;3.04;71.30
63535;BME280;55128;50.230;18.944;2023-02-15T19:22:01;99511.78;;;2.95;71.98
63535;BME280;55128;50.230;18.944;2023-02-15T19:27:02;99501.28;;;2.81;72.13
63535;BME280;55128;50.230;18.944;2023-02-15T19:32:02;99507.41;;;2.69;72.71
63535;BME280;55128;50.230;18.944;2023-02-15T19:37:05;99510.03;;;2.63;72.36
63535;BME280;55128;50.230;18.944;2023-02-15T19:42:13;99505.66;;;2.50;72.98
63535;BME280;55128;50.230;18.944;2023-02-15T19:47:14;99503.88;;;2.32;72.92
63535;BME280;55128;50.230;18.944;2023-02-15T19:52:17;99500.41;;;2.33;73.66
63535;BME280;55128;50.230;18.944;2023-02-15T19:57:19;99493.38;;;2.15;72.82
63535;BME280;55128;50.230;18.944;2023-02-15T20:02:19;99488.97;;;2.02;73.19
63535;BME280;55128;50.230;18.944;2023-02-15T20:07:27;99479.34;;;1.87;73.64
63535;BME280;55128;50.230;18.944;2023-02-15T20:12:27;99475.81;;;1.71;74.55
63535;BME280;55128;50.230;18.944;2023-02-15T20:17:28;99470.56;;;1.74;74.75
63535;BME280;55128;50.230;18.944;2023-02-15T20:22:28;99458.38;;;1.79;75.25
63535;BME280;55128;50.230;18.944;2023-02-15T20:27:29;99458.38;;;1.82;75.05
63535;BME280;55128;50.230;18.944;2023-02-15T20:32:29;99448.78;;;1.81;75.35
63535;BME280;55128;50.230;18.944;2023-02-15T20:37:30;99442.69;;;1.87;75.12
63535;BME280;55128;50.230;18.944;2023-02-15T20:42:30;99443.53;;;1.77;75.64
63535;BME280;55128;50.230;18.944;2023-02-15T20:47:30;99451.38;;;1.75;75.93
63535;BME280;55128;50.230;18.944;2023-02-15T20:52:31;99442.66;;;1.84;75.26
63535;BME280;55128;50.230;18.944;2023-02-15T20:57:31;99447.00;;;1.68;76.16
63535;BME280;55128;50.230;18.944;2023-02-15T21:02:31;99455.72;;;1.71;75.63
63535;BME280;55128;50.230;18.944;2023-02-15T21:07:32;99445.25;;;1.71;75.54
63535;BME280;55128;50.230;18.944;2023-02-15T21:12:32;99450.50;;;1.73;75.26
63535;BME280;55128;50.230;18.944;2023-02-15T21:17:32;99447.84;;;1.67;75.42
63535;BME280;55128;50.230;18.944;2023-02-15T21:22:33;99449.56;;;1.59;75.62
63535;BME280;55128;50.230;18.944;2023-02-15T21:27:33;99443.50;;;1.60;75.53
63535;BME280;55128;50.230;18.944;2023-02-15T21:32:34;99439.97;;;1.54;75.50
63535;BME280;55128;50.230;18.944;2023-02-15T21:37:35;99433.84;;;1.49;75.28
63535;BME280;55128;50.230;18.944;2023-02-15T21:42:35;99423.34;;;1.46;75.82
63535;BME280;55128;50.230;18.944;2023-02-15T21:47:54;99426.84;;;1.45;75.83
63535;BME280;55128;50.230;18.944;2023-02-15T21:52:55;99429.41;;;1.34;76.01
63535;BME280;55128;50.230;18.944;2023-02-15T21:57:55;99416.31;;;1.22;76.10
63535;BME280;55128;50.230;18.944;2023-02-15T22:02:57;99411.91;;;1.18;75.90
63535;BME280;55128;50.230;18.944;2023-02-15T22:07:59;99403.19;;;1.11;75.36
63535;BME280;55128;50.230;18.944;2023-02-15T22:13:00;99405.75;;;1.07;76.22
63535;BME280;55128;50.230;18.944;2023-02-15T22:18:01;99408.34;;;1.02;76.30
63535;BME280;55128;50.230;18.944;2023-02-15T22:23:02;99409.13;;;0.86;76.41
63535;BME280;55128;50.230;18.944;2023-02-15T22:28:03;99409.09;;;0.80;76.44
63535;BME280;55128;50.230;18.944;2023-02-15T22:33:03;99398.66;;;0.80;76.27
63535;BME280;55128;50.230;18.944;2023-02-15T22:38:03;99402.91;;;0.65;76.67
63535;BME280;55128;50.230;18.944;2023-02-15T22:43:04;99408.19;;;0.71;75.79
63535;BME280;55128;50.230;18.944;2023-02-15T22:48:05;99408.03;;;0.54;76.54
63535;BME280;55128;50.230;18.944;2023-02-15T22:53:07;99401.03;;;0.49;76.08
63535;BME280;55128;50.230;18.944;2023-02-15T22:58:18;99414.94;;;0.45;76.39
63535;BME280;55128;50.230;18.944;2023-02-15T23:03:22;99405.38;;;0.44;75.84
63535;BME280;55128;50.230;18.944;2023-02-15T23:08:23;99392.25;;;0.37;75.72
63535;BME280;55128;50.230;18.944;2023-02-15T23:13:28;99396.59;;;0.35;76.02
63535;BME280;55128;50.230;18.944;2023-02-15T23:23:38;99379.97;;;0.23;76.09
63535;BME280;55128;50.230;18.944;2023-02-15T23:28:39;99378.19;;;0.18;75.84
63535;BME280;55128;50.230;18.944;2023-02-15T23:33:40;99378.19;;;0.15;76.29
63535;BME280;55128;50.230;18.944;2023-02-15T23:38:40;99372.91;;;0.12;76.01
63535;BME280;55128;50.230;18.944;2023-02-15T23:43:43;99366.75;;;0.03;76.27
63535;BME280;55128;50.230;18.944;2023-02-15T23:48:45;99373.69;;;0.01;76.90
63535;BME280;55128;50.230;18.944;2023-02-15T23:53:45;99368.41;;;-0.06;76.65
63535;BME280;55128;50.230;18.944;2023-02-15T23:58:46;99357.91;;;-0.15;76.36
